createdAt,value
2022-09-01T00:00:38.192Z,17.10
2022-09-01T00:03:41.980Z,16.20
2022-09-01T00:06:46.303Z,16.20
2022-09-01T00:09:51.526Z,16.00
2022-09-01T00:12:54.750Z,16.10
2022-09-01T00:15:58.002Z,16.10
2022-09-01T00:19:01.879Z,16.10
2022-09-01T00:22:05.892Z,16.40
2022-09-01T00:25:10.911Z,16.10
2022-09-01T00:28:14.091Z,16.10
2022-09-01T00:31:18.845Z,16.10
2022-09-01T00:34:23.099Z,16.10
2022-09-01T00:37:26.255Z,16.10
2022-09-01T00:40:31.304Z,15.70
2022-09-01T00:43:45.258Z,16.10
2022-09-01T00:46:55.244Z,16.00
2022-09-01T00:49:59.579Z,16.00
2022-09-01T00:53:02.860Z,15.90
2022-09-01T00:56:09.690Z,15.50
2022-09-01T00:59:14.910Z,15.80
2022-09-01T01:02:18.210Z,15.80
2022-09-01T01:05:23.281Z,15.70
2022-09-01T01:08:34.003Z,15.70
2022-09-01T01:11:39.074Z,15.70
2022-09-01T01:14:45.843Z,15.70
2022-09-01T01:17:49.264Z,15.70
2022-09-01T01:21:22.437Z,15.70
2022-09-01T01:24:30.048Z,15.60
2022-09-01T01:27:38.092Z,14.10
2022-09-01T01:30:52.422Z,15.50
2022-09-01T01:33:59.225Z,15.50
2022-09-01T01:37:02.593Z,15.50
2022-09-01T01:40:15.566Z,15.40
2022-09-01T01:43:21.695Z,15.40
2022-09-01T01:46:26.278Z,15.40
2022-09-01T01:49:31.169Z,15.30
2022-09-01T01:52:34.995Z,15.30
2022-09-01T01:55:44.140Z,15.30
2022-09-01T01:58:47.600Z,15.30
2022-09-01T02:01:51.196Z,15.20
2022-09-01T02:04:54.972Z,15.50
2022-09-01T02:08:04.023Z,15.20
2022-09-01T02:11:10.036Z,15.30
2022-09-01T02:14:20.464Z,15.30
2022-09-01T02:17:25.488Z,14.90
2022-09-01T02:20:29.473Z,15.10
2022-09-01T02:23:33.020Z,15.20
2022-09-01T02:26:42.967Z,17.40
2022-09-01T02:29:46.180Z,15.10
2022-09-01T02:32:49.455Z,15.50
2022-09-01T02:35:56.321Z,14.90
2022-09-01T02:39:00.066Z,15.00
2022-09-01T02:42:05.361Z,15.00
2022-09-01T02:45:12.035Z,17.20
2022-09-01T02:48:15.407Z,14.90
2022-09-01T02:51:26.331Z,12.80
2022-09-01T02:54:31.517Z,14.90
2022-09-01T02:57:36.210Z,17.70
2022-09-01T03:00:40.724Z,14.80
2022-09-01T03:03:44.236Z,14.80
2022-09-01T03:06:49.647Z,14.80
2022-09-01T03:09:53.164Z,14.70
2022-09-01T03:12:57.887Z,14.70
2022-09-01T03:16:01.576Z,14.70
2022-09-01T03:19:08.967Z,14.40
2022-09-01T03:22:12.377Z,14.50
2022-09-01T03:25:16.698Z,14.90
2022-09-01T03:28:21.615Z,14.50
2022-09-01T03:31:31.065Z,14.40
2022-09-01T03:34:36.811Z,14.40
2022-09-01T03:37:44.212Z,14.30
2022-09-01T03:40:47.965Z,14.30
2022-09-01T03:43:55.008Z,14.30
2022-09-01T03:46:58.458Z,14.20
2022-09-01T03:50:02.056Z,14.20
2022-09-01T03:53:05.588Z,12.00
2022-09-01T03:56:09.636Z,14.10
2022-09-01T03:59:16.931Z,14.10
2022-09-01T04:02:21.825Z,14.10
2022-09-01T04:05:28.755Z,13.80
2022-09-01T04:08:32.558Z,11.80
2022-09-01T04:11:37.041Z,14.20
2022-09-01T04:14:41.681Z,14.20
2022-09-01T04:18:02.324Z,14.20
2022-09-01T04:21:07.213Z,14.20
2022-09-01T04:24:12.175Z,14.10
2022-09-01T04:27:18.139Z,12.20
2022-09-01T04:30:32.309Z,14.10
2022-09-01T04:33:40.024Z,13.50
2022-09-01T04:36:46.968Z,14.20
2022-09-01T04:39:56.913Z,14.20
2022-09-01T04:43:00.865Z,14.20
2022-09-01T04:46:06.017Z,14.20
2022-09-01T04:49:13.309Z,14.20
2022-09-01T04:52:17.304Z,15.00
2022-09-01T04:55:20.912Z,14.20
2022-09-01T04:58:24.445Z,14.20
2022-09-01T05:01:29.374Z,16.00
2022-09-01T05:04:34.979Z,14.30
2022-09-01T05:07:38.571Z,14.30
2022-09-01T05:10:44.714Z,15.90
2022-09-01T05:13:49.884Z,14.40
2022-09-01T05:16:58.774Z,14.50
2022-09-01T05:20:01.910Z,16.50
2022-09-01T05:23:05.146Z,15.20
2022-09-01T05:26:18.041Z,15.80
2022-09-01T05:29:21.088Z,16.40
2022-09-01T05:32:26.947Z,17.00
2022-09-01T05:35:32.899Z,17.50
2022-09-01T05:38:36.607Z,18.70
2022-09-01T05:41:40.895Z,18.80
2022-09-01T05:44:44.839Z,19.30
2022-09-01T05:47:50.201Z,22.40
2022-09-01T05:50:57.367Z,20.30
2022-09-01T05:54:00.386Z,20.80
2022-09-01T05:57:23.400Z,21.20
2022-09-01T06:00:34.643Z,21.70
2022-09-01T06:03:41.366Z,22.80
2022-09-01T06:07:05.445Z,22.60
2022-09-01T06:10:10.562Z,23.00
2022-09-01T06:13:15.859Z,23.40
2022-09-01T06:16:19.583Z,23.70
2022-09-01T06:19:24.075Z,24.00
2022-09-01T06:22:29.580Z,24.20
2022-09-01T06:25:32.615Z,24.40
2022-09-01T06:28:36.047Z,24.50
2022-09-01T06:31:40.261Z,24.70
2022-09-01T06:34:51.196Z,24.90
2022-09-01T06:37:54.248Z,25.00
2022-09-01T06:41:04.131Z,25.20
2022-09-01T06:44:12.401Z,25.30
2022-09-01T06:47:17.471Z,25.30
2022-09-01T06:53:51.198Z,25.30
2022-09-01T06:56:55.324Z,25.40
2022-09-01T06:59:58.380Z,25.30
2022-09-01T07:03:03.138Z,25.30
2022-09-01T07:06:09.852Z,25.30
2022-09-01T07:09:21.545Z,25.30
2022-09-01T07:12:26.276Z,25.30
2022-09-01T07:18:58.891Z,25.30
2022-09-01T07:22:07.447Z,25.30
2022-09-01T07:25:12.822Z,25.20
2022-09-01T07:28:18.968Z,25.20
2022-09-01T07:34:54.040Z,24.90
2022-09-01T07:44:47.506Z,23.90
2022-09-01T07:47:54.055Z,23.50
2022-09-01T07:54:23.983Z,23.00
2022-09-01T07:57:27.217Z,22.90
2022-09-01T08:00:31.736Z,22.70
2022-09-01T08:03:35.165Z,22.60
2022-09-01T08:06:38.554Z,22.60
2022-09-01T08:09:44.724Z,22.50
2022-09-01T08:12:56.208Z,22.50
2022-09-01T08:16:08.527Z,22.90
2022-09-01T08:19:19.395Z,22.30
2022-09-01T08:22:24.028Z,22.20
2022-09-01T08:25:30.721Z,22.20
2022-09-01T08:28:34.120Z,22.20
2022-09-01T08:31:37.300Z,22.20
2022-09-01T08:34:40.506Z,22.20
2022-09-01T08:37:44.412Z,22.30
2022-09-01T08:40:57.411Z,22.30
2022-09-01T08:44:14.752Z,23.60
2022-09-01T08:47:35.582Z,22.30
2022-09-01T08:50:51.820Z,22.30
2022-09-01T08:54:05.740Z,22.40
2022-09-01T08:57:18.669Z,22.40
2022-09-01T09:00:25.804Z,22.50
2022-09-01T09:03:42.802Z,22.50
2022-09-01T09:07:02.489Z,22.60
2022-09-01T09:10:15.795Z,22.70
2022-09-01T09:13:30.841Z,22.70
2022-09-01T09:16:42.561Z,22.70
2022-09-01T09:19:47.145Z,22.80
2022-09-01T09:22:54.096Z,22.80
2022-09-01T09:25:57.367Z,23.70
2022-09-01T09:29:02.127Z,22.80
2022-09-01T09:35:38.437Z,22.80
2022-09-01T09:38:41.693Z,22.80
2022-09-01T09:42:08.922Z,22.90
2022-09-01T09:45:28.215Z,22.90
2022-09-01T09:48:34.128Z,22.90
2022-09-01T09:51:38.705Z,23.00
2022-09-01T09:55:00.368Z,23.10
2022-09-01T09:58:13.404Z,23.10
2022-09-01T10:01:32.437Z,23.10
2022-09-01T10:04:38.851Z,23.10
2022-09-01T10:07:41.862Z,23.20
2022-09-01T10:10:57.605Z,25.00
2022-09-01T10:14:01.770Z,23.20
2022-09-01T10:17:13.952Z,23.20
2022-09-01T10:20:22.944Z,23.30
2022-09-01T10:23:31.090Z,24.50
2022-09-01T10:26:40.372Z,23.20
2022-09-01T10:29:49.612Z,23.20
2022-09-01T10:33:06.831Z,23.20
2022-09-01T10:36:16.772Z,23.20
2022-09-01T10:39:21.970Z,23.20
2022-09-01T10:42:31.522Z,23.30
2022-09-01T10:45:38.297Z,23.30
2022-09-01T10:48:52.036Z,23.30
2022-09-01T10:52:05.821Z,23.30
2022-09-01T10:55:24.781Z,23.40
2022-09-01T11:02:24.984Z,23.50
2022-09-01T11:06:12.090Z,23.40
2022-09-01T11:09:24.506Z,23.50
2022-09-01T11:13:09.398Z,23.50
2022-09-01T11:16:51.649Z,23.50
2022-09-01T11:20:09.129Z,23.50
2022-09-01T11:23:24.930Z,23.50
2022-09-01T11:26:48.989Z,23.60
2022-09-01T11:29:57.019Z,23.60
2022-09-01T11:33:14.206Z,23.70
2022-09-01T11:36:29.203Z,23.70
2022-09-01T11:39:41.547Z,23.70
2022-09-01T11:42:47.071Z,23.70
2022-09-01T11:46:09.251Z,23.80
2022-09-01T11:49:31.020Z,23.90
2022-09-01T11:52:38.701Z,23.80
2022-09-01T11:55:46.481Z,23.80
2022-09-01T11:58:49.592Z,23.70
2022-09-01T12:01:59.308Z,23.70
2022-09-01T12:05:23.437Z,23.70
2022-09-01T12:08:30.462Z,23.80
2022-09-01T12:11:36.815Z,23.70
2022-09-01T12:15:04.508Z,23.80
2022-09-01T12:18:19.892Z,23.70
2022-09-01T12:21:26.942Z,23.70
2022-09-01T12:24:34.976Z,23.70
2022-09-01T12:27:39.579Z,23.70
2022-09-01T12:30:44.610Z,23.70
2022-09-01T12:33:49.474Z,23.70
2022-09-01T12:37:09.753Z,23.70
2022-09-01T12:40:32.431Z,23.80
2022-09-01T12:43:40.692Z,23.80
2022-09-01T12:46:46.959Z,23.80
2022-09-01T12:49:52.079Z,24.50
2022-09-01T12:52:58.624Z,23.80
2022-09-01T12:56:25.350Z,23.80
2022-09-01T12:59:36.171Z,23.80
2022-09-01T13:02:43.780Z,23.80
2022-09-01T13:05:51.767Z,23.90
2022-09-01T13:08:56.596Z,23.90
2022-09-01T13:12:21.607Z,23.90
2022-09-01T13:15:26.187Z,24.00
2022-09-01T13:18:30.450Z,24.10
2022-09-01T13:21:35.730Z,24.10
2022-09-01T13:24:39.675Z,24.20
2022-09-01T13:27:44.218Z,24.20
2022-09-01T13:34:24.101Z,24.30
2022-09-01T13:37:27.611Z,24.30
2022-09-01T13:40:30.978Z,24.30
2022-09-01T13:43:36.099Z,24.30
2022-09-01T13:50:07.660Z,24.40
2022-09-01T13:53:12.930Z,24.50
2022-09-01T13:56:15.963Z,24.50
2022-09-01T13:59:19.015Z,24.50
2022-09-01T14:02:23.600Z,24.50
2022-09-01T14:05:29.146Z,24.50
2022-09-01T14:08:33.859Z,24.50
2022-09-01T14:11:36.990Z,24.50
2022-09-01T14:18:06.030Z,24.50
2022-09-01T14:21:14.693Z,24.50
2022-09-01T14:24:19.837Z,24.50
2022-09-01T14:27:22.869Z,24.40
2022-09-01T14:30:31.744Z,26.10
2022-09-01T14:33:37.201Z,24.50
2022-09-01T14:36:40.568Z,24.50
2022-09-01T14:39:49.669Z,24.50
2022-09-01T14:42:54.186Z,24.50
2022-09-01T14:46:07.524Z,24.60
2022-09-01T14:49:12.571Z,24.60
2022-09-01T14:52:17.746Z,24.60
2022-09-01T14:55:22.272Z,24.50
2022-09-01T14:58:26.480Z,25.40
2022-09-01T15:01:34.707Z,24.50
2022-09-01T15:04:39.641Z,24.50
2022-09-01T15:07:43.728Z,24.40
2022-09-01T15:10:46.979Z,24.80
2022-09-01T15:13:52.495Z,24.40
2022-09-01T15:16:55.757Z,24.30
2022-09-01T15:20:21.723Z,24.30
2022-09-01T15:23:27.482Z,24.30
2022-09-01T15:26:31.685Z,24.20
2022-09-01T15:29:36.725Z,24.20
2022-09-01T15:32:39.851Z,24.10
2022-09-01T15:35:45.117Z,24.30
2022-09-01T15:38:48.530Z,24.00
2022-09-01T15:41:51.796Z,24.00
2022-09-01T15:44:54.803Z,23.90
2022-09-01T15:47:58.003Z,24.20
2022-09-01T15:51:30.874Z,23.80
2022-09-01T15:54:39.723Z,23.70
2022-09-01T15:57:42.780Z,23.60
2022-09-01T16:00:46.525Z,23.60
2022-09-01T16:03:50.134Z,23.50
2022-09-01T16:06:56.485Z,23.40
2022-09-01T16:10:00.408Z,23.30
2022-09-01T16:13:03.776Z,23.30
2022-09-01T16:16:28.701Z,23.20
2022-09-01T16:19:42.955Z,23.20
2022-09-01T16:22:55.263Z,23.10
2022-09-01T16:26:01.411Z,23.00
2022-09-01T16:29:13.418Z,23.00
2022-09-01T16:32:16.985Z,23.80
2022-09-01T16:35:29.569Z,22.80
2022-09-01T16:38:47.435Z,22.80
2022-09-01T16:42:13.246Z,22.70
2022-09-01T16:45:31.397Z,22.70
2022-09-01T16:48:47.072Z,22.50
2022-09-01T16:52:04.066Z,22.50
2022-09-01T16:55:23.908Z,22.40
2022-09-01T16:58:41.090Z,22.50
2022-09-01T17:01:57.945Z,22.30
2022-09-01T17:05:13.723Z,22.30
2022-09-01T17:08:24.016Z,22.20
2022-09-01T17:11:40.255Z,22.20
2022-09-01T17:14:51.925Z,22.10
2022-09-01T17:18:06.322Z,22.00
2022-09-01T17:21:14.847Z,22.00
2022-09-01T17:24:35.143Z,21.90
2022-09-01T17:27:52.927Z,21.80
2022-09-01T17:31:06.709Z,21.70
2022-09-01T17:34:34.325Z,21.70
2022-09-01T17:38:04.563Z,21.60
2022-09-01T17:41:24.132Z,21.50
2022-09-01T17:44:43.090Z,21.40
2022-09-01T17:48:03.128Z,21.30
2022-09-01T17:51:16.474Z,21.20
2022-09-01T17:54:31.776Z,21.10
2022-09-01T17:57:45.562Z,21.00
2022-09-01T18:01:00.144Z,21.00
2022-09-01T18:04:36.061Z,20.80
2022-09-01T18:08:04.986Z,18.60
2022-09-01T18:11:14.145Z,20.70
2022-09-01T18:14:27.959Z,20.60
2022-09-01T18:17:41.038Z,20.50
2022-09-01T18:20:50.588Z,20.50
2022-09-01T18:24:04.738Z,20.40
2022-09-01T18:27:09.183Z,20.30
2022-09-01T18:30:26.214Z,20.20
2022-09-01T18:34:01.978Z,22.30
2022-09-01T18:37:18.368Z,20.10
2022-09-01T18:41:08.181Z,21.30
2022-09-01T18:44:40.505Z,19.90
2022-09-01T18:47:55.237Z,17.60
2022-09-01T18:51:14.025Z,19.80
2022-09-01T18:54:26.005Z,17.20
2022-09-01T18:57:41.341Z,22.00
2022-09-01T19:01:07.249Z,20.10
2022-09-01T19:04:27.694Z,19.60
2022-09-01T19:07:49.331Z,19.50
2022-09-01T19:11:05.246Z,19.60
2022-09-01T19:14:21.640Z,19.50
2022-09-01T19:18:00.187Z,19.50
2022-09-01T19:21:13.882Z,21.10
2022-09-01T19:24:27.696Z,19.40
2022-09-01T19:27:35.671Z,16.70
2022-09-01T19:30:48.231Z,18.70
2022-09-01T19:33:55.826Z,18.90
2022-09-01T19:37:03.138Z,19.20
2022-09-01T19:40:10.866Z,19.40
2022-09-01T19:43:18.243Z,19.00
2022-09-01T19:46:35.498Z,19.00
2022-09-01T19:49:49.692Z,18.90
2022-09-01T19:53:00.692Z,18.80
2022-09-01T19:56:13.291Z,18.80
2022-09-01T19:59:25.268Z,18.70
2022-09-01T20:02:35.313Z,18.60
2022-09-01T20:05:46.350Z,18.60
2022-09-01T20:08:57.619Z,18.50
2022-09-01T20:12:18.009Z,18.40
2022-09-01T20:15:33.080Z,18.30
2022-09-01T20:18:46.096Z,18.30
2022-09-01T20:21:50.496Z,17.60
2022-09-01T20:24:58.455Z,18.10
2022-09-01T20:28:08.445Z,18.00
2022-09-01T20:31:22.923Z,18.00
2022-09-01T20:34:38.628Z,18.00
2022-09-01T20:37:47.944Z,17.30
2022-09-01T20:40:50.454Z,17.90
2022-09-01T20:43:58.261Z,17.90
2022-09-01T20:47:01.531Z,15.80
2022-09-01T20:50:13.225Z,17.70
2022-09-01T20:53:41.706Z,20.30
2022-09-01T20:56:53.284Z,19.60
2022-09-01T21:00:05.630Z,17.50
2022-09-01T21:03:33.714Z,17.40
2022-09-01T21:06:51.595Z,17.40
2022-09-01T21:10:09.388Z,17.30
2022-09-01T21:13:30.051Z,17.20
2022-09-01T21:16:52.668Z,17.10
2022-09-01T21:20:11.934Z,18.30
2022-09-01T21:23:16.191Z,17.00
2022-09-01T21:26:19.188Z,15.50
2022-09-01T21:29:37.250Z,15.60
2022-09-01T21:32:43.077Z,16.90
2022-09-01T21:35:46.561Z,16.90
2022-09-01T21:38:49.803Z,16.90
2022-09-01T21:41:53.633Z,19.00
2022-09-01T21:44:59.762Z,17.60
2022-09-01T21:48:06.074Z,16.60
2022-09-01T21:51:09.498Z,16.60
2022-09-01T21:54:12.745Z,18.30
2022-09-01T21:57:16.527Z,16.50
2022-09-01T22:00:24.796Z,16.30
2022-09-01T22:03:29.481Z,14.00
2022-09-01T22:06:34.329Z,16.30
2022-09-01T22:09:38.329Z,16.20
2022-09-01T22:12:44.354Z,16.10
2022-09-01T22:15:51.266Z,16.10
2022-09-01T22:18:56.963Z,16.00
2022-09-01T22:22:00.387Z,16.00
2022-09-01T22:25:06.781Z,15.90
2022-09-01T22:28:11.291Z,15.90
2022-09-01T22:31:16.337Z,15.90
2022-09-01T22:34:21.202Z,18.50
2022-09-01T22:37:24.574Z,15.80
2022-09-01T22:40:27.831Z,15.90
2022-09-01T22:43:32.099Z,18.00
2022-09-01T22:46:36.821Z,15.70
2022-09-01T22:49:41.542Z,15.70
2022-09-01T22:52:44.739Z,16.50
2022-09-01T22:55:51.309Z,15.60
2022-09-01T22:58:57.778Z,15.60
2022-09-01T23:02:01.856Z,15.60
2022-09-01T23:05:07.923Z,17.20
2022-09-01T23:08:12.468Z,15.60
2022-09-01T23:11:16.747Z,15.50
2022-09-01T23:14:20.012Z,15.60
2022-09-01T23:17:23.525Z,15.60
2022-09-01T23:20:30.346Z,15.50
2022-09-01T23:23:35.693Z,15.50
2022-09-01T23:26:39.424Z,15.80
2022-09-01T23:29:42.750Z,15.60
2022-09-01T23:32:46.065Z,15.50
2022-09-01T23:35:54.168Z,17.50
2022-09-01T23:38:59.058Z,15.60
2022-09-01T23:42:02.444Z,15.00
2022-09-01T23:45:07.098Z,15.50
2022-09-01T23:48:12.769Z,13.60
2022-09-01T23:51:19.316Z,15.50
2022-09-01T23:54:22.771Z,15.50
2022-09-01T23:57:26.214Z,15.50
